Fort Rucker, Alabama
Current Conditions -  °F | °C
As of 5:53 AM on Sunday 23 Nov 2014 (Local Time) from KLOR Reporting Station
Haze Haze  
Wind Chill: 62°   Ceiling: 500
Heat Index: 62°   Visibility: 4mi
Dew Point: 61°   Wind: 3mph
Humidity: 96%   Direction: NA
Pressure: 29.89"   Gusts: NA
Location:  31.34°N, 85.71°W
Report Text: KLOR 231153Z AUTO VRB03KT 4SM BR OVC005 17/16 A2989 RMK AO2 RAB06E27 SLP119 P0000 60006 70013 T01670161 10167 20156 56010 TSNO $
Loading
Personal Weather Stations






























Interactive Weather Map New forecast layout! Learn more

10-Day Weather Forecast

Advertisements
Track Severe Weather on mobile